Terminal Aerodrome Forecast
Issued by NWS

Home | Current Version | Previous Version | Text Only | Print | Product List | Glossary On
Versions: 1 2 3 4 5 6 7 8 9 10 11 12 13 14 15 16 17 18 19 20 21 22 23 24 25 26 27 28 29 30 31 32 33
000
FTUS41 KBOX 191120
TAFFMH
TAF
KFMH 191120Z 1912/2012 01005KT P6SM SKC
     FM191500 02009KT P6SM FEW250
     FM192000 08007KT P6SM FEW250
     FM200500 13005KT 3SM BR SCT200
     FM200800 12007KT P6SM BKN150=

USA.gov is the U.S. government's official web portal to all federal, state and local government web resources and services.